Time;durP1;ratioP1;P1;durP2;ratioP2;P2;SDS_P1;SDS_P2;PMS_P1;PMS_P2;Temp;Humidity;BMP_temperature;BMP_pressure;BME280_temperature;BME280_humidity;BME280_pressure;Samples;Min_cycle;Max_cycle;Signal;HPM_P1;HPM_P2
2021/11/05 00:00:41;;;;;;;11.63;5.00;;;;;;;4.91;98.84;101124.84;5069213;28;20029;-73
2021/11/05 00:03:07;;;;;;;9.60;4.32;;;;;;;4.90;98.77;101132.28;5045581;28;20032;-73
2021/11/05 00:05:32;;;;;;;8.18;4.22;;;;;;;4.90;98.64;101126.78;5056788;28;20033;-74
2021/11/05 00:07:58;;;;;;;10.07;4.57;;;;;;;4.90;98.79;101128.66;5057764;28;20112;-73
2021/11/05 00:10:24;;;;;;;9.48;4.68;;;;;;;4.92;98.81;101126.50;5054937;28;20378;-73
2021/11/05 00:12:49;;;;;;;9.15;4.65;;;;;;;4.92;99.11;101130.09;5056780;28;20032;-73
2021/11/05 00:15:15;;;;;;;8.73;4.93;;;;;;;4.92;99.19;101132.03;5054048;28;20040;-73
2021/11/05 00:17:40;;;;;;;6.97;4.65;;;;;;;4.94;99.29;101132.63;5040604;28;20492;-73
2021/11/05 00:20:07;;;;;;;11.65;5.03;;;;;;;4.93;99.17;101144.69;5062779;28;20033;-73
2021/11/05 00:22:34;;;;;;;8.70;4.80;;;;;;;4.93;99.12;101144.69;5039452;28;20033;-73
2021/11/05 00:25:00;;;;;;;7.70;4.30;;;;;;;4.94;99.27;101151.88;5064469;28;20025;-73
2021/11/05 00:27:25;;;;;;;8.55;4.75;;;;;;;4.95;99.37;101153.56;5043022;28;20063;-73
2021/11/05 00:29:51;;;;;;;10.88;4.20;;;;;;;4.92;99.15;101134.78;5062099;28;20079;-73
2021/11/05 00:32:16;;;;;;;12.07;4.38;;;;;;;4.92;99.08;101146.63;5056302;28;20029;-73
2021/11/05 00:34:42;;;;;;;7.85;4.00;;;;;;;4.90;99.02;101145.19;5056721;28;20080;-73
2021/11/05 00:37:07;;;;;;;7.93;3.83;;;;;;;4.89;98.86;101143.50;5054595;28;20387;-73
2021/11/05 00:39:33;;;;;;;7.65;3.60;;;;;;;4.88;98.77;101141.84;5065241;28;20032;-73
2021/11/05 00:41:59;;;;;;;6.82;3.53;;;;;;;4.86;98.52;101146.75;5057000;28;20033;-73
2021/11/05 00:44:24;;;;;;;6.40;4.07;;;;;;;4.85;98.63;101153.34;5058598;28;20020;-73
2021/11/05 00:46:50;;;;;;;7.70;4.18;;;;;;;4.82;98.35;101151.03;5065092;28;20044;-73
2021/11/05 00:49:16;;;;;;;5.25;3.42;;;;;;;4.80;98.38;101150.47;5064754;28;20040;-73
2021/11/05 00:51:41;;;;;;;8.27;3.45;;;;;;;4.77;98.14;101140.78;5063632;28;20078;-73
2021/11/05 00:54:08;;;;;;;5.25;3.33;;;;;;;4.73;98.24;101150.56;5060077;28;20029;-73
2021/11/05 00:56:34;;;;;;;5.75;3.55;;;;;;;4.68;98.42;101142.19;5058984;28;20036;-73
2021/11/05 00:59:00;;;;;;;7.68;4.03;;;;;;;4.69;98.17;101143.88;5064962;28;20392;-73
2021/11/05 01:01:25;;;;;;;6.22;3.42;;;;;;;4.64;98.30;101150.09;5063488;28;20036;-73
2021/11/05 01:03:51;;;;;;;8.20;3.83;;;;;;;4.61;98.41;101147.00;5040151;28;20040;-73
2021/11/05 01:06:18;;;;;;;7.78;3.58;;;;;;;4.60;98.43;101145.34;5056370;28;20040;-73
2021/11/05 01:08:44;;;;;;;6.25;3.58;;;;;;;4.57;98.91;101145.78;5073809;28;20035;-73
2021/11/05 01:11:09;;;;;;;6.20;3.80;;;;;;;4.54;99.01;101157.25;5056017;28;20492;-73
2021/11/05 01:13:35;;;;;;;8.02;4.00;;;;;;;4.53;98.75;101156.44;5040394;28;20036;-73
2021/11/05 01:16:00;;;;;;;6.68;3.38;;;;;;;4.50;98.77;101154.16;5039655;28;20029;-73
2021/11/05 01:18:26;;;;;;;8.93;4.15;;;;;;;4.48;98.64;101153.56;5041209;28;20588;-73
2021/11/05 01:20:53;;;;;;;5.68;3.65;;;;;;;4.46;98.90;101155.72;5057081;28;20048;-73
2021/11/05 01:23:21;;;;;;;5.15;3.47;;;;;;;4.44;98.86;101164.22;5056751;28;20084;-73
2021/11/05 01:25:47;;;;;;;6.35;3.33;;;;;;;4.43;98.65;101154.28;5065435;28;20107;-73
2021/11/05 01:28:12;;;;;;;6.22;3.45;;;;;;;4.43;98.58;101161.69;5058107;28;20035;-73
2021/11/05 01:30:38;;;;;;;7.70;3.08;;;;;;;4.38;98.70;101153.31;5061412;28;20044;-73
2021/11/05 01:33:07;;;;;;;8.15;3.30;;;;;;;4.38;98.75;101167.06;5054666;28;20576;-73
2021/11/05 01:35:36;;;;;;;5.78;3.67;;;;;;;4.36;98.68;101163.72;5061101;28;20068;-73
2021/11/05 01:38:03;;;;;;;5.30;3.17;;;;;;;4.31;98.55;101160.84;5060602;28;20038;-73
2021/11/05 01:40:28;;;;;;;7.60;3.42;;;;;;;4.30;98.39;101162.75;5054413;28;20032;-73
2021/11/05 01:42:55;;;;;;;6.15;3.42;;;;;;;4.26;98.51;101156.03;5054433;28;20040;-73
2021/11/05 01:45:21;;;;;;;4.43;3.15;;;;;;;4.23;98.45;101162.88;5055724;28;20072;-73
2021/11/05 01:47:46;;;;;;;4.43;3.10;;;;;;;4.22;98.48;101161.19;5056393;28;20033;-73
2021/11/05 01:50:13;;;;;;;9.13;3.33;;;;;;;4.20;98.17;101166.06;5067826;28;20040;-73
2021/11/05 01:52:39;;;;;;;4.47;3.00;;;;;;;4.18;98.24;101165.50;5055251;28;20036;-73
2021/11/05 01:55:05;;;;;;;9.32;3.30;;;;;;;4.18;98.02;101159.13;5057661;28;20041;-73
2021/11/05 01:57:31;;;;;;;9.95;4.03;;;;;;;4.14;97.92;101158.75;5040790;28;20039;-73
2021/11/05 01:59:56;;;;;;;8.80;4.18;;;;;;;4.11;98.00;101162.00;5038904;28;20036;-73
2021/11/05 02:02:22;;;;;;;9.52;5.22;;;;;;;4.07;97.97;101165.44;5036746;28;20040;-73
2021/11/05 02:04:47;;;;;;;9.05;4.88;;;;;;;4.03;98.25;101160.41;5057161;28;20029;-73
2021/11/05 02:07:13;;;;;;;10.10;4.88;;;;;;;4.03;98.07;101163.16;5067882;28;20063;-73
2021/11/05 02:09:38;;;;;;;10.32;4.45;;;;;;;4.01;97.98;101165.31;5058795;28;20223;-73
2021/11/05 02:12:05;;;;;;;8.10;3.47;;;;;;;3.98;97.90;101165.78;5060116;28;20048;-73
2021/11/05 02:14:30;;;;;;;7.40;3.90;;;;;;;3.97;97.75;101166.03;5063903;28;20029;-73
2021/11/05 02:16:58;;;;;;;9.70;3.60;;;;;;;3.93;97.74;101171.16;5059709;28;20029;-73
2021/11/05 02:19:25;;;;;;;6.50;3.38;;;;;;;3.94;97.59;101163.75;5039317;28;20032;-73
2021/11/05 02:21:52;;;;;;;7.43;3.53;;;;;;;3.89;97.90;101171.84;5065897;28;20090;-73
2021/11/05 02:24:17;;;;;;;8.63;3.60;;;;;;;3.85;97.45;101170.66;5060456;28;20047;-72
2021/11/05 02:26:43;;;;;;;8.55;3.88;;;;;;;3.82;97.61;101180.19;5054135;28;20053;-73
2021/11/05 02:29:09;;;;;;;6.72;3.65;;;;;;;3.78;97.71;101179.81;5072877;28;20045;-73
2021/11/05 02:31:34;;;;;;;6.00;3.80;;;;;;;3.78;97.62;101185.28;5055769;28;20037;-73
2021/11/05 02:34:00;;;;;;;6.22;3.42;;;;;;;3.75;97.69;101172.03;5058942;28;20040;-73
2021/11/05 02:36:26;;;;;;;5.00;3.30;;;;;;;3.71;97.69;101181.81;5057448;28;20037;-73
2021/11/05 02:38:51;;;;;;;5.53;3.45;;;;;;;3.69;97.90;101181.19;5060066;28;20087;-73
2021/11/05 02:41:19;;;;;;;6.55;3.70;;;;;;;3.66;97.78;101175.34;5054309;28;20051;-73
2021/11/05 02:43:45;;;;;;;5.82;3.22;;;;;;;3.65;97.78;101181.88;5053843;28;20032;-73
2021/11/05 02:46:10;;;;;;;5.65;3.30;;;;;;;3.57;98.38;101180.31;5057098;28;20033;-73
2021/11/05 02:48:36;;;;;;;8.43;3.95;;;;;;;3.61;97.99;101187.00;5055323;28;20049;-74
2021/11/05 02:51:02;;;;;;;6.40;3.17;;;;;;;3.59;98.35;101189.16;5041492;28;20070;-73
2021/11/05 02:53:27;;;;;;;6.20;3.15;;;;;;;3.61;98.57;101187.00;5067107;28;20017;-73
2021/11/05 02:55:53;;;;;;;6.75;3.33;;;;;;;3.59;98.96;101183.66;5067375;28;20039;-73
2021/11/05 02:58:18;;;;;;;7.20;3.30;;;;;;;3.60;98.78;101190.84;5055653;28;20056;-73
2021/11/05 03:00:45;;;;;;;4.63;3.28;;;;;;;3.60;99.34;101193.59;5067273;28;20035;-73
2021/11/05 03:03:14;;;;;;;5.97;3.45;;;;;;;3.60;99.51;101190.00;5054755;28;20025;-73
2021/11/05 03:05:40;;;;;;;5.38;3.45;;;;;;;3.62;99.44;101199.66;5040361;28;20029;-73
2021/11/05 03:08:05;;;;;;;5.40;3.30;;;;;;;3.64;99.51;101199.44;5057525;28;20028;-73
2021/11/05 03:10:31;;;;;;;6.13;3.30;;;;;;;3.65;99.72;101193.75;5056721;28;20037;-73
2021/11/05 03:12:57;;;;;;;5.35;3.67;;;;;;;3.66;99.82;101195.41;5038363;28;20404;-73
2021/11/05 03:15:22;;;;;;;6.93;3.60;;;;;;;3.68;99.66;101197.94;5055623;28;20147;-73
2021/11/05 03:17:48;;;;;;;5.20;3.10;;;;;;;3.70;99.53;101202.09;5056851;28;20033;-73
2021/11/05 03:20:13;;;;;;;5.65;3.28;;;;;;;3.74;99.64;101202.50;5035083;28;20092;-73
2021/11/05 03:22:39;;;;;;;6.15;3.25;;;;;;;3.75;99.58;101206.91;5055029;28;20033;-73
2021/11/05 03:25:05;;;;;;;4.63;3.38;;;;;;;3.75;99.53;101204.16;5053384;28;20063;-73
2021/11/05 03:27:31;;;;;;;7.50;4.03;;;;;;;3.77;99.68;101202.88;5060893;28;20045;-73
2021/11/05 03:29:56;;;;;;;6.10;3.50;;;;;;;3.79;99.50;101200.72;5062041;28;20031;-73
2021/11/05 03:32:22;;;;;;;6.60;4.20;;;;;;;3.80;99.22;101198.81;5055042;28;20037;-73
2021/11/05 03:34:48;;;;;;;6.78;4.03;;;;;;;3.80;99.22;101201.56;5054287;28;20029;-73
2021/11/05 03:37:13;;;;;;;7.22;3.70;;;;;;;3.80;98.88;101212.56;5058108;28;21528;-73
2021/11/05 03:39:39;;;;;;;5.07;3.60;;;;;;;3.79;98.84;101208.97;5055031;28;20037;-73
2021/11/05 03:42:04;;;;;;;7.65;3.47;;;;;;;3.77;98.97;101213.84;5054324;28;20041;-74
2021/11/05 03:44:30;;;;;;;6.18;3.58;;;;;;;3.77;98.83;101218.50;5066040;28;20032;-73
2021/11/05 03:46:56;;;;;;;7.95;3.67;;;;;;;3.74;98.63;101214.31;5054794;28;20063;-73
2021/11/05 03:49:21;;;;;;;5.30;3.70;;;;;;;3.73;98.37;101228.28;5061666;28;20043;-73
2021/11/05 03:51:47;;;;;;;6.18;3.47;;;;;;;3.72;98.39;101232.09;5061529;28;20025;-73
2021/11/05 03:54:12;;;;;;;4.60;3.20;;;;;;;3.70;98.27;101228.75;5045453;28;20028;-73
2021/11/05 03:56:38;;;;;;;6.00;3.40;;;;;;;3.68;98.28;101231.72;5062124;28;20541;-73
2021/11/05 03:59:04;;;;;;;7.05;3.38;;;;;;;3.67;98.05;101230.03;5065980;28;20025;-73
2021/11/05 04:01:29;;;;;;;6.90;3.15;;;;;;;3.63;97.96;101233.50;5046208;28;20033;-73
2021/11/05 04:03:55;;;;;;;4.82;3.00;;;;;;;3.60;97.91;101234.78;5038863;28;20135;-73
2021/11/05 04:06:21;;;;;;;5.38;3.00;;;;;;;3.57;97.86;101240.75;5057736;28;20044;-73
2021/11/05 04:08:47;;;;;;;4.47;3.17;;;;;;;3.52;97.97;101237.84;5060176;28;20044;-73
2021/11/05 04:11:12;;;;;;;5.60;4.80;;;;;;;3.51;97.74;101242.50;5064801;28;20437;-73
2021/11/05 04:13:38;;;;;;;6.20;4.30;;;;;;;3.49;97.76;101252.03;5059355;28;20032;-73
2021/11/05 04:16:04;;;;;;;7.38;4.22;;;;;;;3.45;97.60;101251.63;5055359;28;20068;-73
2021/11/05 04:18:29;;;;;;;6.03;3.97;;;;;;;3.42;97.77;101265.81;5072458;28;20079;-73
2021/11/05 04:20:55;;;;;;;4.88;4.18;;;;;;;3.41;97.88;101261.41;5038595;28;20033;-73
2021/11/05 04:23:20;;;;;;;6.70;3.85;;;;;;;3.38;97.78;101266.53;5055304;28;20029;-73
2021/11/05 04:25:46;;;;;;;9.73;4.07;;;;;;;3.34;97.82;101267.00;5057778;28;20079;-74
2021/11/05 04:28:11;;;;;;;7.90;4.00;;;;;;;3.33;97.71;101273.53;5058449;28;20397;-73
2021/11/05 04:30:37;;;;;;;5.65;3.60;;;;;;;3.30;97.70;101276.72;5070775;28;20037;-73
2021/11/05 04:33:03;;;;;;;4.82;3.40;;;;;;;3.29;97.73;101279.72;5059561;28;20473;-73
2021/11/05 04:35:29;;;;;;;6.32;3.80;;;;;;;3.26;97.89;101283.75;5059946;28;20037;-73
2021/11/05 04:37:54;;;;;;;4.70;3.33;;;;;;;3.23;97.95;101292.44;5048566;28;20017;-73
2021/11/05 04:40:20;;;;;;;7.80;3.65;;;;;;;3.20;97.95;101292.03;5051693;28;20481;-73
2021/11/05 04:42:45;;;;;;;5.35;3.75;;;;;;;3.19;98.08;101302.19;5053958;28;20052;-73
2021/11/05 04:45:11;;;;;;;6.30;3.65;;;;;;;3.18;98.37;101302.44;5056034;28;20055;-73
2021/11/05 04:47:36;;;;;;;5.75;3.45;;;;;;;3.20;98.57;101303.84;5056846;28;20056;-73
2021/11/05 04:50:02;;;;;;;7.93;4.20;;;;;;;3.19;98.67;101310.41;5051243;28;20040;-73
2021/11/05 04:52:28;;;;;;;5.65;4.18;;;;;;;3.18;98.93;101311.50;5055427;28;20033;-73
2021/11/05 04:54:53;;;;;;;6.00;3.72;;;;;;;3.19;99.12;101309.59;5039866;28;20452;-73
2021/11/05 04:57:20;;;;;;;6.28;3.78;;;;;;;3.19;99.13;101312.34;5060496;28;20025;-73
2021/11/05 04:59:46;;;;;;;7.22;4.20;;;;;;;3.19;99.16;101317.81;5065824;28;20025;-74
2021/11/05 05:02:11;;;;;;;8.35;4.10;;;;;;;3.19;99.10;101315.06;5055057;28;20060;-73
2021/11/05 05:04:37;;;;;;;6.28;4.13;;;;;;;3.19;98.97;101315.91;5055516;28;20504;-73
2021/11/05 05:07:02;;;;;;;5.97;4.30;;;;;;;3.20;99.10;101317.59;5026013;28;20544;-73
2021/11/05 05:09:28;;;;;;;7.18;4.70;;;;;;;3.20;98.98;101320.31;5056899;28;20043;-73
2021/11/05 05:11:54;;;;;;;6.32;4.70;;;;;;;3.19;98.80;101318.66;5052451;28;20029;-73
2021/11/05 05:14:19;;;;;;;6.03;4.30;;;;;;;3.19;98.95;101328.81;5041910;28;20040;-73
2021/11/05 05:16:45;;;;;;;7.35;4.40;;;;;;;3.16;98.91;101321.84;5056809;28;20025;-73
2021/11/05 05:19:10;;;;;;;5.82;4.18;;;;;;;3.17;99.16;101322.69;5054234;28;20401;-73
2021/11/05 05:21:36;;;;;;;7.22;4.15;;;;;;;3.14;98.90;101330.31;5054878;28;20410;-73
2021/11/05 05:24:01;;;;;;;5.63;4.20;;;;;;;3.16;98.99;101326.50;5069787;28;20362;-73
2021/11/05 05:26:26;;;;;;;9.38;4.60;;;;;;;3.16;98.91;101338.31;5037859;28;20067;-73
2021/11/05 05:28:52;;;;;;;6.05;4.38;;;;;;;3.14;98.91;101335.78;5056036;28;20377;-73
2021/11/05 05:31:17;;;;;;;6.85;4.22;;;;;;;3.13;98.84;101338.78;5056858;28;20034;-73
2021/11/05 05:33:43;;;;;;;8.65;4.28;;;;;;;3.12;98.71;101346.19;5054306;28;20052;-73
2021/11/05 05:36:09;;;;;;;6.28;4.18;;;;;;;3.10;98.78;101344.72;5058806;28;20044;-73
2021/11/05 05:38:34;;;;;;;6.55;4.25;;;;;;;3.08;98.70;101338.59;5068706;28;20389;-73
2021/11/05 05:41:00;;;;;;;7.45;4.63;;;;;;;3.05;98.41;101341.81;5055100;28;20036;-73
2021/11/05 05:43:25;;;;;;;8.70;4.60;;;;;;;3.05;98.39;101339.06;5059604;28;20041;-73
2021/11/05 05:45:51;;;;;;;7.10;4.20;;;;;;;3.04;98.36;101334.63;5056322;28;20032;-73
2021/11/05 05:48:17;;;;;;;7.45;4.05;;;;;;;3.02;98.26;101340.34;5032810;28;20032;-73
2021/11/05 05:50:42;;;;;;;5.18;4.00;;;;;;;3.00;98.13;101339.72;5058627;28;20048;-73
2021/11/05 05:53:08;;;;;;;5.40;3.92;;;;;;;2.97;98.13;101344.81;5057331;28;20333;-73
2021/11/05 05:55:34;;;;;;;4.20;3.45;;;;;;;2.94;98.41;101348.00;5058166;28;20029;-73
2021/11/05 05:58:00;;;;;;;5.82;4.18;;;;;;;2.95;98.10;101357.91;5058537;28;20025;-73
2021/11/05 06:00:28;;;;;;;5.70;4.20;;;;;;;2.93;98.22;101360.06;5057365;28;20036;-73
2021/11/05 06:02:54;;;;;;;5.05;4.10;;;;;;;2.90;98.17;101356.69;5059053;28;20037;-73
2021/11/05 06:05:19;;;;;;;5.30;3.92;;;;;;;2.89;98.21;101365.97;5055653;28;20025;-73
2021/11/05 06:07:45;;;;;;;4.65;3.30;;;;;;;2.86;97.90;101365.59;5057668;28;20036;-73
2021/11/05 06:10:11;;;;;;;6.07;4.68;;;;;;;2.83;97.87;101372.34;5055007;28;20036;-73
2021/11/05 06:12:36;;;;;;;4.80;3.78;;;;;;;2.81;97.82;101370.88;5051494;28;20029;-73
2021/11/05 06:15:03;;;;;;;4.88;3.55;;;;;;;2.77;97.86;101365.00;5069374;28;20062;-73
2021/11/05 06:17:28;;;;;;;5.10;3.90;;;;;;;2.75;97.82;101367.13;5052917;28;20036;-73
2021/11/05 06:19:54;;;;;;;7.38;4.07;;;;;;;2.72;97.71;101375.81;5061983;28;20045;-73
2021/11/05 06:22:20;;;;;;;4.55;3.60;;;;;;;2.69;97.62;101382.56;5059089;28;20605;-73
2021/11/05 06:24:45;;;;;;;8.13;4.38;;;;;;;2.67;97.62;101381.09;5061678;28;20366;-73
2021/11/05 06:27:11;;;;;;;5.82;3.90;;;;;;;2.60;97.73;101386.66;5055404;28;20037;-73
2021/11/05 06:29:37;;;;;;;6.80;3.80;;;;;;;2.63;97.65;101394.44;5065132;28;20056;-73
2021/11/05 06:32:04;;;;;;;6.78;4.05;;;;;;;2.60;97.67;101396.78;5057110;28;20127;-73
2021/11/05 06:34:30;;;;;;;5.65;4.03;;;;;;;2.59;97.88;101403.31;5067764;28;20024;-73
2021/11/05 06:36:55;;;;;;;6.15;3.90;;;;;;;2.55;97.67;101402.06;5050722;28;20037;-73
2021/11/05 06:39:21;;;;;;;5.68;3.95;;;;;;;2.49;97.92;101408.44;5049131;28;20025;-73
2021/11/05 06:41:47;;;;;;;5.07;4.05;;;;;;;2.49;97.75;101405.69;5054444;28;20029;-73
2021/11/05 06:44:13;;;;;;;4.75;3.63;;;;;;;2.46;97.78;101415.19;5053823;28;20397;-73
2021/11/05 06:46:39;;;;;;;4.32;3.92;;;;;;;2.47;97.98;101412.22;5054481;28;20033;-73
2021/11/05 06:49:05;;;;;;;6.07;3.78;;;;;;;2.44;98.11;101426.38;5051030;28;20037;-73
2021/11/05 06:51:30;;;;;;;7.00;4.00;;;;;;;2.42;97.94;101431.25;5053894;28;20094;-73
2021/11/05 06:53:56;;;;;;;4.85;3.95;;;;;;;2.40;97.97;101433.38;5056142;28;20095;-73
2021/11/05 06:56:22;;;;;;;8.55;4.30;;;;;;;2.40;97.91;101435.28;5057635;28;20037;-73
2021/11/05 06:58:47;;;;;;;5.93;4.35;;;;;;;2.38;97.98;101437.38;5056850;28;20579;-73
2021/11/05 07:01:13;;;;;;;5.03;4.15;;;;;;;2.38;97.94;101440.13;5063863;28;20032;-74
2021/11/05 07:03:39;;;;;;;6.82;4.35;;;;;;;2.36;98.04;101443.06;5054355;28;20044;-73
2021/11/05 07:06:04;;;;;;;5.57;4.50;;;;;;;2.34;98.02;101445.22;5037564;28;20028;-73
2021/11/05 07:08:31;;;;;;;7.90;3.85;;;;;;;2.33;97.95;101437.19;5068294;28;20033;-73
2021/11/05 07:10:57;;;;;;;5.80;4.30;;;;;;;2.32;97.83;101452.78;5065566;28;20532;-73
2021/11/05 07:13:22;;;;;;;7.30;4.00;;;;;;;2.32;97.87;101446.47;5052844;28;20120;-73
2021/11/05 07:15:48;;;;;;;6.53;4.25;;;;;;;2.31;97.94;101459.31;5055125;28;20032;-73
2021/11/05 07:18:14;;;;;;;7.63;4.45;;;;;;;2.29;97.93;101457.88;5042988;28;20052;-73
2021/11/05 07:20:40;;;;;;;5.85;4.00;;;;;;;2.29;97.91;101458.72;5042720;28;20025;-73
2021/11/05 07:23:05;;;;;;;8.52;4.65;;;;;;;2.26;97.90;101456.41;5071707;28;20442;-73
2021/11/05 07:25:31;;;;;;;7.85;5.05;;;;;;;2.29;98.11;101468.84;5052062;28;20054;-73
2021/11/05 07:27:57;;;;;;;6.80;4.57;;;;;;;2.31;98.23;101473.03;5062211;28;20138;-73
2021/11/05 07:30:23;;;;;;;5.03;4.07;;;;;;;2.31;98.48;101472.19;5044291;28;20034;-74
2021/11/05 07:32:50;;;;;;;4.70;4.00;;;;;;;2.31;98.97;101480.41;5054344;28;20028;-73
2021/11/05 07:35:18;;;;;;;8.70;4.68;;;;;;;2.41;98.75;101480.81;5065218;28;20036;-74
2021/11/05 07:37:44;;;;;;;9.63;4.45;;;;;;;2.41;99.05;101484.38;5069700;28;20031;-74
2021/11/05 07:40:10;;;;;;;6.70;4.75;;;;;;;2.43;99.92;101481.44;5043606;28;20037;-74
2021/11/05 07:42:39;;;;;;;7.53;4.97;;;;;;;2.46;100.00;101484.59;5028642;28;20477;-74
2021/11/05 07:45:05;;;;;;;13.55;5.20;;;;;;;2.54;100.00;101488.16;5047975;28;20512;-74
2021/11/05 07:47:31;;;;;;;7.53;4.85;;;;;;;2.62;100.00;101494.25;5039756;28;20044;-73
2021/11/05 07:49:56;;;;;;;7.38;4.72;;;;;;;2.71;100.00;101500.31;5047406;28;20041;-74
2021/11/05 07:52:22;;;;;;;7.40;5.00;;;;;;;2.78;100.00;101503.84;5055155;28;20024;-76
2021/11/05 07:54:47;;;;;;;7.88;5.10;;;;;;;2.90;100.00;101510.34;5025408;28;20026;-73
2021/11/05 07:57:13;;;;;;;8.85;4.90;;;;;;;2.98;100.00;101519.38;5069409;28;20024;-73
2021/11/05 07:59:39;;;;;;;5.90;4.85;;;;;;;3.08;100.00;101517.00;5059595;28;20040;-73
2021/11/05 08:02:05;;;;;;;8.00;4.55;;;;;;;3.17;100.00;101520.34;5058823;28;20405;-73
2021/11/05 08:04:30;;;;;;;6.95;4.38;;;;;;;3.30;100.00;101525.75;5053443;28;20024;-73
2021/11/05 08:06:56;;;;;;;5.78;4.50;;;;;;;3.41;100.00;101537.94;5039210;28;20435;-73
2021/11/05 08:09:21;;;;;;;6.70;4.75;;;;;;;3.51;100.00;101533.63;5057889;28;20039;-70
2021/11/05 08:11:47;;;;;;;6.20;4.45;;;;;;;3.64;100.00;101540.91;5058717;28;20436;-73
2021/11/05 08:14:12;;;;;;;5.57;4.22;;;;;;;3.76;100.00;101539.16;5022208;28;20087;-78
2021/11/05 08:16:38;;;;;;;7.05;3.92;;;;;;;3.89;100.00;101548.34;5078500;28;20094;-77
2021/11/05 08:19:04;;;;;;;5.85;3.85;;;;;;;4.00;100.00;101547.59;5033493;28;20138;-80
2021/11/05 08:21:29;;;;;;;4.85;3.88;;;;;;;4.12;100.00;101548.53;5041480;28;20041;-78
2021/11/05 08:23:55;;;;;;;7.05;4.13;;;;;;;4.22;100.00;101548.88;5056841;28;20037;-78
2021/11/05 08:26:20;;;;;;;8.13;3.80;;;;;;;4.34;100.00;101557.22;5058681;28;20128;-78
2021/11/05 08:28:46;;;;;;;7.05;4.15;;;;;;;4.46;100.00;101562.81;5039400;28;20056;-78
2021/11/05 08:31:12;;;;;;;7.47;4.22;;;;;;;4.57;100.00;101564.81;5055787;28;20029;-78
2021/11/05 08:33:39;;;;;;;5.90;3.67;;;;;;;4.68;100.00;101568.69;5052378;28;20060;-78
2021/11/05 08:36:05;;;;;;;4.70;3.90;;;;;;;4.80;100.00;101574.31;5040117;28;20029;-78
2021/11/05 08:38:31;;;;;;;7.18;4.22;;;;;;;4.94;100.00;101578.56;5064474;28;20431;-78
2021/11/05 08:40:56;;;;;;;7.60;4.68;;;;;;;5.05;100.00;101583.31;5048933;28;20051;-78
2021/11/05 08:43:29;;;;;;;6.43;4.22;;;;;;;5.17;100.00;101588.88;5063720;28;20029;-78
2021/11/05 08:45:54;;;;;;;7.45;3.97;;;;;;;5.29;100.00;101584.28;5066501;28;20122;-78
2021/11/05 08:48:20;;;;;;;8.85;5.20;;;;;;;5.40;100.00;101593.63;5054238;28;20033;-78
2021/11/05 08:50:46;;;;;;;5.22;4.57;;;;;;;5.50;100.00;101602.19;5065632;28;20041;-78
2021/11/05 08:53:11;;;;;;;4.18;3.60;;;;;;;5.62;100.00;101598.63;5067215;28;20028;-78
2021/11/05 08:55:38;;;;;;;6.35;3.70;;;;;;;5.74;100.00;101597.59;5055966;28;20025;-78
2021/11/05 08:58:04;;;;;;;8.45;3.65;;;;;;;5.89;100.00;101599.91;5044695;28;20053;-78
2021/11/05 09:00:32;;;;;;;8.23;4.43;;;;;;;5.99;100.00;101602.97;5068542;28;20071;-78
2021/11/05 09:02:59;;;;;;;5.93;4.38;;;;;;;6.09;100.00;101604.31;5041365;28;20059;-79
2021/11/05 09:05:24;;;;;;;6.75;4.13;;;;;;;6.22;100.00;101604.91;5043605;28;20420;-78
2021/11/05 09:07:50;;;;;;;8.18;4.18;;;;;;;6.34;100.00;101607.69;5071346;28;20032;-78
2021/11/05 09:10:15;;;;;;;7.15;3.80;;;;;;;6.48;100.00;101611.88;5057181;28;20029;-78
2021/11/05 09:12:42;;;;;;;7.68;4.30;;;;;;;6.61;100.00;101609.97;5024525;28;20029;-78
2021/11/05 09:15:09;;;;;;;6.30;3.90;;;;;;;6.72;100.00;101606.38;5062554;28;20033;-78
2021/11/05 09:17:35;;;;;;;5.93;3.75;;;;;;;6.85;100.00;101613.53;5056041;28;20027;-78
2021/11/05 09:20:04;;;;;;;9.30;3.80;;;;;;;6.94;100.00;101612.94;5062500;28;20438;-78
2021/11/05 09:22:30;;;;;;;6.43;3.20;;;;;;;7.09;100.00;101617.09;5051350;28;20033;-78
2021/11/05 09:24:55;;;;;;;5.20;3.83;;;;;;;7.18;99.00;101612.88;5072439;28;20039;-78
2021/11/05 09:27:21;;;;;;;8.73;4.20;;;;;;;7.28;99.78;101621.38;5059334;28;20040;-78
2021/11/05 09:29:46;;;;;;;6.45;4.53;;;;;;;7.20;100.00;101621.75;5042354;28;20071;-79
2021/11/05 09:32:12;;;;;;;4.68;3.50;;;;;;;7.31;99.32;101625.56;5067135;28;20033;-78
2021/11/05 09:34:37;;;;;;;11.02;4.00;;;;;;;7.42;99.19;101626.63;5045405;28;20025;-78
2021/11/05 09:37:03;;;;;;;10.20;4.22;;;;;;;7.54;99.64;101630.16;5055131;28;20366;-79
2021/11/05 09:39:30;;;;;;;10.77;4.00;;;;;;;7.69;100.00;101637.91;5067016;28;20037;-78
2021/11/05 09:41:56;;;;;;;9.35;3.92;;;;;;;7.78;99.37;101640.03;5056721;28;20041;-78
2021/11/05 09:44:22;;;;;;;8.85;3.95;;;;;;;7.89;99.68;101640.25;5051675;28;20024;-79
2021/11/05 09:46:48;;;;;;;7.35;3.83;;;;;;;7.96;99.00;101640.91;5040372;28;20029;-81
2021/11/05 09:49:14;;;;;;;6.45;3.65;;;;;;;8.06;98.00;101641.09;5037608;28;20374;-78
2021/11/05 09:51:40;;;;;;;7.68;3.50;;;;;;;8.13;97.99;101643.69;5058541;28;20062;-78
2021/11/05 09:54:05;;;;;;;5.57;3.70;;;;;;;8.23;97.96;101641.94;5033371;28;20097;-79
2021/11/05 09:56:31;;;;;;;9.43;4.43;;;;;;;8.35;98.68;101639.09;5042938;28;20036;-78
2021/11/05 09:58:56;;;;;;;5.22;3.28;;;;;;;8.44;97.83;101636.75;5058114;28;20365;-79
2021/11/05 10:01:22;;;;;;;6.03;3.10;;;;;;;8.56;96.73;101639.47;5072643;28;20028;-78
2021/11/05 10:03:47;;;;;;;7.53;3.45;;;;;;;8.66;96.60;101646.00;5056537;28;20025;-79
2021/11/05 10:06:13;;;;;;;5.53;3.00;;;;;;;8.77;96.71;101640.59;5059899;28;20032;-79
2021/11/05 10:08:39;;;;;;;4.97;2.58;;;;;;;8.90;95.36;101645.78;5038491;28;20033;-79
2021/11/05 10:11:28;;;;;;;4.82;2.20;;;;;;;9.03;95.07;101650.13;5056482;28;20104;-79
2021/11/05 10:13:54;;;;;;;4.07;2.40;;;;;;;9.13;95.00;101650.25;5045193;28;20115;-78
2021/11/05 10:16:20;;;;;;;5.80;2.35;;;;;;;9.20;93.38;101656.47;5067225;28;20040;-79
2021/11/05 10:19:05;;;;;;;5.03;2.75;;;;;;;9.27;92.68;101659.03;5055311;28;20036;-79
2021/11/05 10:21:40;;;;;;;4.18;2.47;;;;;;;9.33;91.16;101660.75;5059964;28;20040;-78
2021/11/05 10:24:07;;;;;;;6.47;2.30;;;;;;;9.38;91.34;101663.59;5067397;28;20121;-79
2021/11/05 10:26:35;;;;;;;5.75;2.33;;;;;;;9.50;91.82;101661.56;5045469;28;20123;-79
2021/11/05 10:29:01;;;;;;;4.50;2.05;;;;;;;9.55;90.88;101663.53;5054026;28;20162;-80
2021/11/05 10:31:27;;;;;;;3.70;2.50;;;;;;;9.57;89.05;101670.50;5051729;28;20033;-79
2021/11/05 10:33:53;;;;;;;6.43;2.13;;;;;;;9.65;89.48;101666.44;5038368;28;20070;-74
2021/11/05 10:36:20;;;;;;;5.80;2.47;;;;;;;9.69;89.75;101666.75;5051024;28;20025;-74
2021/11/05 10:38:47;;;;;;;6.22;2.65;;;;;;;9.74;88.98;101664.03;5056838;28;20485;-74
2021/11/05 10:41:19;;;;;;;3.50;2.05;;;;;;;9.83;89.09;101665.25;5070261;28;20081;-73
2021/11/05 10:43:49;;;;;;;4.07;1.60;;;;;;;9.86;86.77;101670.25;5067695;28;20036;-73
2021/11/05 10:46:31;;;;;;;4.70;2.15;;;;;;;9.89;86.15;101674.44;5053423;28;20517;-74
2021/11/05 10:48:59;;;;;;;3.72;2.20;;;;;;;9.87;86.19;101673.91;5060599;28;20044;-73
2021/11/05 10:51:25;;;;;;;5.32;1.92;;;;;;;9.90;85.02;101670.59;5067581;28;20044;-74
2021/11/05 10:53:51;;;;;;;3.92;1.70;;;;;;;9.94;85.15;101675.34;5060936;28;20024;-74
2021/11/05 10:56:21;;;;;;;6.53;1.83;;;;;;;9.98;85.10;101678.47;5037639;28;20037;-74
2021/11/05 10:58:49;;;;;;;3.83;2.03;;;;;;;10.02;83.17;101674.88;5061536;28;20021;-74
2021/11/05 11:01:16;;;;;;;5.07;1.80;;;;;;;10.12;83.93;101676.09;5060587;28;20071;-74
2021/11/05 11:03:52;;;;;;;3.50;1.50;;;;;;;10.17;82.01;101668.66;5060803;28;20063;-74
2021/11/05 11:06:20;;;;;;;4.32;2.10;;;;;;;10.14;82.13;101673.88;5050778;28;20052;-74
2021/11/05 11:08:50;;;;;;;5.25;2.13;;;;;;;10.16;81.66;101668.91;5044990;28;20036;-74
2021/11/05 11:11:22;;;;;;;5.05;1.70;;;;;;;10.20;81.49;101673.69;5062236;28;20036;-74
2021/11/05 11:13:52;;;;;;;2.00;1.50;;;;;;;10.27;79.71;101667.94;5061294;28;20021;-74
2021/11/05 11:16:23;;;;;;;3.92;1.90;;;;;;;10.36;81.36;101660.78;5044244;28;20033;-74
2021/11/05 11:19:13;;;;;;;2.72;1.38;;;;;;;10.54;83.11;101669.84;5059523;28;20061;-74
2021/11/05 11:21:39;;;;;;;4.75;1.52;;;;;;;10.60;82.30;101666.00;5058408;28;20036;-73
2021/11/05 11:24:07;;;;;;;6.32;1.40;;;;;;;10.67;83.06;101667.44;5071200;28;20424;-73
2021/11/05 11:26:33;;;;;;;3.72;1.70;;;;;;;10.73;82.53;101674.69;5057819;28;20045;-74